createdAt,value
2019-02-23T00:02:23.727Z,60511.70
2019-02-23T00:04:52.148Z,60499.50
2019-02-23T00:07:20.565Z,60513.73
2019-02-23T00:09:49.242Z,60533.04
2019-02-23T00:12:17.926Z,60508.65
2019-02-23T00:14:46.325Z,60491.38
2019-02-23T00:17:14.846Z,60483.25
2019-02-23T00:19:43.220Z,60504.59
2019-02-23T00:22:11.598Z,60504.59
2019-02-23T00:24:40.227Z,60515.77
2019-02-23T00:27:08.947Z,60494.43
2019-02-23T00:29:37.329Z,60500.52
2019-02-23T00:32:05.931Z,60500.52
2019-02-23T00:34:34.594Z,60490.36
2019-02-23T00:37:02.987Z,60504.59
2019-02-23T00:39:31.445Z,60504.59
2019-02-23T00:41:59.930Z,60500.52
2019-02-23T00:44:28.695Z,60483.25
2019-02-23T00:46:57.096Z,60487.31
2019-02-23T00:49:35.929Z,60517.80
2019-02-23T00:51:55.803Z,60505.60
2019-02-23T00:54:24.211Z,60505.60
2019-02-23T00:56:52.619Z,60488.33
2019-02-23T00:59:21.455Z,60529.99
2019-02-23T01:01:49.845Z,60482.23
2019-02-23T01:04:18.235Z,60481.21
2019-02-23T01:06:46.900Z,60502.55
2019-02-23T01:09:15.373Z,60502.55
2019-02-23T01:11:44.040Z,60477.15
2019-02-23T01:14:12.442Z,60490.36
2019-02-23T01:16:41.108Z,60510.68
2019-02-23T01:19:09.619Z,60517.80
2019-02-23T01:21:38.010Z,60523.89
2019-02-23T01:24:06.503Z,60521.86
2019-02-23T01:26:34.892Z,60499.50
2019-02-23T01:29:03.608Z,60529.99
2019-02-23T01:31:32.004Z,60484.26
2019-02-23T01:34:00.806Z,60527.96
2019-02-23T01:36:29.200Z,60508.65
2019-02-23T01:38:57.667Z,60498.49
2019-02-23T01:41:26.148Z,60512.72
2019-02-23T01:43:54.541Z,60511.70
2019-02-23T01:46:22.961Z,60480.20
2019-02-23T01:48:51.368Z,60522.88
2019-02-23T01:51:19.751Z,60496.46
2019-02-23T01:53:48.454Z,60498.49
2019-02-23T01:56:16.894Z,60498.49
2019-02-23T01:58:45.589Z,60495.44
2019-02-23T02:01:13.992Z,60514.75
2019-02-23T02:03:42.386Z,60500.52
2019-02-23T02:06:10.778Z,60528.98
2019-02-23T02:08:39.190Z,60479.18
2019-02-23T02:11:08.001Z,60488.33
2019-02-23T02:13:36.392Z,60510.68
2019-02-23T02:16:05.172Z,60518.82
2019-02-23T02:18:33.578Z,60507.64
2019-02-23T02:21:01.939Z,60531.01
2019-02-23T02:23:30.611Z,60529.99
2019-02-23T02:25:58.996Z,60532.02
2019-02-23T02:28:27.378Z,60525.93
2019-02-23T02:30:55.786Z,60514.75
2019-02-23T02:33:24.313Z,60529.99
2019-02-23T02:35:52.703Z,60507.64
2019-02-23T02:38:21.101Z,60499.50
2019-02-23T02:40:49.501Z,60534.06
2019-02-23T02:43:17.887Z,60509.67
2019-02-23T02:45:46.301Z,60491.38
2019-02-23T02:48:15.017Z,60486.29
2019-02-23T02:50:43.734Z,60495.44
2019-02-23T02:53:12.131Z,60509.67
2019-02-23T02:55:40.763Z,60524.91
2019-02-23T02:58:09.174Z,60521.86
2019-02-23T03:00:37.636Z,60514.75
2019-02-23T03:03:06.056Z,60484.26
2019-02-23T03:05:34.458Z,60509.67
2019-02-23T03:08:02.851Z,60523.89
2019-02-23T03:10:31.351Z,60515.77
2019-02-23T03:12:59.735Z,60510.68
2019-02-23T03:15:28.258Z,60508.65
2019-02-23T03:17:56.725Z,60537.11
2019-02-23T03:20:36.255Z,60515.77
2019-02-23T03:22:55.853Z,60520.85
2019-02-23T03:25:24.258Z,60511.70
2019-02-23T03:27:52.690Z,60531.01
2019-02-23T03:30:21.351Z,60510.68
2019-02-23T03:32:49.785Z,60485.28
2019-02-23T03:35:18.230Z,60518.82
2019-02-23T03:37:46.631Z,60528.98
2019-02-23T03:40:15.029Z,60519.83
2019-02-23T03:42:43.436Z,60534.06
2019-02-23T03:45:11.967Z,60514.75
2019-02-23T03:47:40.362Z,60507.64
2019-02-23T03:50:08.833Z,60532.02
2019-02-23T03:52:37.401Z,60526.95
2019-02-23T03:55:06.258Z,60509.67
2019-02-23T03:57:34.661Z,60522.88
2019-02-23T04:00:03.401Z,60507.64
2019-02-23T04:02:32.135Z,60508.65
2019-02-23T04:05:00.608Z,60517.80
2019-02-23T04:07:29.069Z,60536.09
2019-02-23T04:09:57.801Z,60538.12
2019-02-23T04:12:26.185Z,60527.96
2019-02-23T04:14:54.659Z,60509.67
2019-02-23T04:17:23.694Z,60542.19
2019-02-23T04:19:52.088Z,60524.91
2019-02-23T04:22:20.586Z,60496.46
2019-02-23T04:24:49.286Z,60521.86
2019-02-23T04:27:17.677Z,60523.89
2019-02-23T04:29:47.001Z,60514.75
2019-02-23T04:32:15.541Z,60529.99
2019-02-23T04:34:43.930Z,60513.73
2019-02-23T04:37:12.323Z,60524.91
2019-02-23T04:39:41.021Z,60509.67
2019-02-23T04:42:09.450Z,60553.36
2019-02-23T04:44:37.827Z,60534.06
2019-02-23T04:47:06.231Z,60504.59
2019-02-23T04:49:34.612Z,60538.12
2019-02-23T04:52:03.017Z,60531.01
2019-02-23T04:54:34.446Z,60521.86
2019-02-23T04:57:02.970Z,60546.25
2019-02-23T04:59:31.329Z,60529.99
2019-02-23T05:01:59.784Z,60551.33
2019-02-23T05:04:28.189Z,60510.68
2019-02-23T05:06:56.603Z,60542.19
2019-02-23T05:09:25.031Z,60511.70
2019-02-23T05:11:53.443Z,60528.98
2019-02-23T05:14:21.833Z,60501.54
2019-02-23T05:16:50.223Z,60507.64
2019-02-23T05:19:18.653Z,60500.52
2019-02-23T05:21:47.028Z,60518.82
2019-02-23T05:24:15.722Z,60529.99
2019-02-23T05:26:44.107Z,60516.78
2019-02-23T05:29:12.738Z,60493.41
2019-02-23T05:31:41.451Z,60527.96
2019-02-23T05:34:10.059Z,60553.36
2019-02-23T05:36:38.441Z,60526.95
2019-02-23T05:39:07.644Z,60524.91
2019-02-23T05:41:36.045Z,60537.11
2019-02-23T05:44:04.480Z,60506.62
2019-02-23T05:46:32.875Z,60519.83
2019-02-23T05:49:01.719Z,60500.52
2019-02-23T05:51:38.315Z,60517.80
2019-02-23T05:54:00.232Z,60528.98
2019-02-23T05:56:28.645Z,60536.09
2019-02-23T05:58:57.308Z,60525.93
2019-02-23T06:01:25.993Z,60518.82
2019-02-23T06:03:54.387Z,60493.41
2019-02-23T06:06:22.979Z,60529.99
2019-02-23T06:08:51.364Z,60507.64
2019-02-23T06:11:19.787Z,60519.83
2019-02-23T06:13:48.170Z,60527.96
2019-02-23T06:16:16.839Z,60500.52
2019-02-23T06:18:45.232Z,60518.82
2019-02-23T06:21:13.612Z,60503.57
2019-02-23T06:23:42.143Z,60541.17
2019-02-23T06:26:10.629Z,60508.65
2019-02-23T06:28:39.282Z,60494.43
2019-02-23T06:31:07.683Z,60513.73
2019-02-23T06:33:36.082Z,60526.95
2019-02-23T06:36:04.480Z,60553.36
2019-02-23T06:38:33.226Z,60524.91
2019-02-23T06:41:01.678Z,60548.29
2019-02-23T06:43:30.185Z,60527.96
2019-02-23T06:45:58.581Z,60550.32
2019-02-23T06:48:26.973Z,60536.09
2019-02-23T06:50:55.355Z,60543.20
2019-02-23T06:53:23.806Z,60516.78
2019-02-23T06:55:52.213Z,60487.31
2019-02-23T06:58:20.671Z,60513.73
2019-02-23T07:00:49.078Z,60538.12
2019-02-23T07:03:17.471Z,60554.38
2019-02-23T07:05:45.882Z,60528.98
2019-02-23T07:08:14.282Z,60551.33
2019-02-23T07:10:42.868Z,60517.80
2019-02-23T07:13:11.270Z,60518.82
2019-02-23T07:15:39.647Z,60540.15
2019-02-23T07:18:08.039Z,60549.30
2019-02-23T07:20:43.682Z,60534.06
2019-02-23T07:23:06.927Z,60537.11
2019-02-23T07:25:35.579Z,60518.82
2019-02-23T07:28:03.967Z,60521.86
2019-02-23T07:30:32.604Z,60521.86
2019-02-23T07:33:01.049Z,60509.67
2019-02-23T07:35:29.712Z,60535.07
2019-02-23T07:37:58.166Z,60528.98
2019-02-23T07:40:26.556Z,60557.43
2019-02-23T07:42:54.969Z,60524.91
2019-02-23T07:45:23.358Z,60542.19
2019-02-23T07:47:51.737Z,60525.93
2019-02-23T07:50:20.756Z,60538.12
2019-02-23T07:52:49.156Z,60537.11
2019-02-23T07:55:17.544Z,60554.38
2019-02-23T07:57:45.950Z,60527.96
2019-02-23T08:00:15.102Z,60515.77
2019-02-23T08:02:43.488Z,60552.35
2019-02-23T08:05:11.998Z,60546.25
2019-02-23T08:07:40.413Z,60517.80
2019-02-23T08:10:11.127Z,60515.77
2019-02-23T08:12:39.761Z,60487.31
2019-02-23T08:15:10.677Z,60529.99
2019-02-23T08:17:39.083Z,60540.15
2019-02-23T08:20:13.234Z,60521.86
2019-02-23T08:22:41.639Z,60543.20
2019-02-23T08:25:12.240Z,60542.19
2019-02-23T08:27:40.626Z,60545.23
2019-02-23T08:30:14.081Z,60531.01
2019-02-23T08:32:42.697Z,60539.14
2019-02-23T08:35:11.155Z,60548.29
2019-02-23T08:37:39.652Z,60527.96
2019-02-23T08:40:18.816Z,60527.96
2019-02-23T08:42:47.486Z,60502.55
2019-02-23T08:45:16.180Z,60533.04
2019-02-23T08:47:44.587Z,60511.70
2019-02-23T08:50:16.352Z,60523.89
2019-02-23T08:52:49.294Z,60519.83
2019-02-23T08:55:15.090Z,60534.06
2019-02-23T08:57:43.802Z,60542.19
2019-02-23T09:00:17.102Z,60512.72
2019-02-23T09:02:45.774Z,60526.95
2019-02-23T09:05:14.860Z,60526.95
2019-02-23T09:07:43.264Z,60487.31
2019-02-23T09:10:13.865Z,60498.49
2019-02-23T09:12:42.570Z,60522.88
2019-02-23T09:15:12.193Z,60531.01
2019-02-23T09:17:40.866Z,60525.93
2019-02-23T09:20:11.121Z,60525.93
2019-02-23T09:22:39.706Z,60508.65
2019-02-23T09:25:11.658Z,60496.46
2019-02-23T09:27:40.054Z,60545.23
2019-02-23T09:30:14.059Z,60524.91
2019-02-23T09:32:42.456Z,60521.86
2019-02-23T09:35:12.726Z,60491.38
2019-02-23T09:37:41.758Z,60491.38
2019-02-23T09:40:12.920Z,60526.95
2019-02-23T09:42:41.569Z,60528.98
2019-02-23T09:45:12.076Z,60507.64
2019-02-23T09:47:41.023Z,60507.64
2019-02-23T09:50:09.448Z,60476.13
2019-02-23T09:52:38.494Z,60476.13
2019-02-23T09:55:08.370Z,60473.09
2019-02-23T09:57:36.992Z,60481.21
2019-02-23T10:00:08.825Z,60481.21
2019-02-23T10:02:37.279Z,60497.47
2019-02-23T10:05:07.016Z,60497.47
2019-02-23T10:07:35.400Z,60495.44
2019-02-23T10:10:04.579Z,60495.44
2019-02-23T10:12:33.239Z,60457.84
2019-02-23T10:15:01.770Z,60482.23
2019-02-23T10:17:30.247Z,60482.23
2019-02-23T10:19:58.632Z,60482.23
2019-02-23T10:22:27.029Z,60464.96
2019-02-23T10:24:55.777Z,60454.79
2019-02-23T10:27:24.244Z,60483.25
2019-02-23T10:29:52.688Z,60464.96
2019-02-23T10:32:21.239Z,60465.97
2019-02-23T10:34:50.031Z,60465.97
2019-02-23T10:37:18.477Z,60469.02
2019-02-23T10:39:46.952Z,60475.12
2019-02-23T10:42:16.030Z,60470.04
2019-02-23T10:44:44.429Z,60453.78
2019-02-23T10:47:14.970Z,60450.73
2019-02-23T10:49:43.352Z,60455.81
2019-02-23T10:52:11.737Z,60445.65
2019-02-23T10:54:40.197Z,60459.87
2019-02-23T10:57:08.592Z,60451.75
2019-02-23T10:59:37.089Z,60426.34
2019-02-23T11:02:05.783Z,60443.61
2019-02-23T11:04:34.174Z,60428.37
2019-02-23T11:07:02.830Z,60450.73
2019-02-23T11:09:32.460Z,60463.94
2019-02-23T11:12:00.917Z,60423.29
2019-02-23T11:14:29.422Z,60447.68
2019-02-23T11:16:57.813Z,60457.84
2019-02-23T11:19:26.485Z,60418.21
2019-02-23T11:21:54.872Z,60408.05
2019-02-23T11:24:23.339Z,60413.13
2019-02-23T11:26:52.002Z,60435.48
2019-02-23T11:29:20.477Z,60438.53
2019-02-23T11:31:48.931Z,60433.45
2019-02-23T11:34:17.481Z,60422.27
2019-02-23T11:36:45.876Z,60433.45
2019-02-23T11:39:14.652Z,60422.27
2019-02-23T11:41:43.037Z,60451.75
2019-02-23T11:44:11.421Z,60407.03
2019-02-23T11:46:40.162Z,60412.11
2019-02-23T11:49:08.789Z,60402.97
2019-02-23T11:51:38.245Z,60401.95
2019-02-23T11:54:06.814Z,60408.05
2019-02-23T11:56:35.351Z,60395.86
2019-02-23T11:59:03.751Z,60431.42
2019-02-23T12:01:32.157Z,60400.93
2019-02-23T12:04:00.579Z,60413.13
2019-02-23T12:06:28.958Z,60432.44
2019-02-23T12:08:57.508Z,60423.29
2019-02-23T12:11:26.393Z,60412.11
2019-02-23T12:13:55.433Z,60392.80
2019-02-23T12:16:24.040Z,60401.95
2019-02-23T12:18:52.700Z,60409.07
2019-02-23T12:21:21.162Z,60405.00
2019-02-23T12:23:49.584Z,60407.03
2019-02-23T12:26:18.044Z,60392.80
2019-02-23T12:28:46.426Z,60410.08
2019-02-23T12:31:14.824Z,60383.66
2019-02-23T12:33:43.853Z,60406.02
2019-02-23T12:36:12.803Z,60435.48
2019-02-23T12:38:41.188Z,60376.55
2019-02-23T12:41:09.607Z,60403.98
2019-02-23T12:43:38.315Z,60406.02
2019-02-23T12:46:06.995Z,60402.97
2019-02-23T12:48:35.790Z,60400.93
2019-02-23T12:51:04.216Z,60399.92
2019-02-23T12:53:32.639Z,60387.72
2019-02-23T12:56:01.158Z,60402.97
2019-02-23T12:58:29.630Z,60403.98
2019-02-23T13:00:58.028Z,60396.87
2019-02-23T13:03:26.408Z,60386.71
2019-02-23T13:05:55.052Z,60412.11
2019-02-23T13:08:23.474Z,60398.90
2019-02-23T13:10:53.217Z,60370.45
2019-02-23T13:13:42.151Z,60377.56
2019-02-23T13:16:22.676Z,60410.08
2019-02-23T13:19:13.700Z,60367.40
2019-02-23T13:21:45.141Z,60390.77
2019-02-23T13:24:28.181Z,60372.48
2019-02-23T13:27:00.964Z,60384.68
2019-02-23T13:29:49.009Z,60391.79
2019-02-23T13:32:43.269Z,60385.69
2019-02-23T13:35:24.131Z,60381.63
2019-02-23T13:38:01.827Z,60395.86
2019-02-23T13:40:39.298Z,60391.79
2019-02-23T13:43:10.749Z,60407.03
2019-02-23T13:45:45.193Z,60384.68
2019-02-23T13:48:44.899Z,60382.64
2019-02-23T13:51:51.187Z,60413.13
2019-02-23T13:54:38.394Z,60375.53
2019-02-23T13:57:08.209Z,60376.55
2019-02-23T13:59:45.499Z,60363.34
2019-02-23T14:02:35.060Z,60409.07
2019-02-23T14:05:18.561Z,60401.95
2019-02-23T14:08:07.950Z,60386.71
2019-02-23T14:11:05.106Z,60399.92
2019-02-23T14:13:48.694Z,60393.82
2019-02-23T14:16:23.038Z,60385.69
2019-02-23T14:18:54.740Z,60370.45
2019-02-23T14:21:44.931Z,60383.66
2019-02-23T14:24:25.497Z,60382.64
2019-02-23T14:27:08.707Z,60381.63
2019-02-23T14:29:43.253Z,60365.37
2019-02-23T14:32:17.464Z,60394.84
2019-02-23T14:34:54.955Z,60402.97
2019-02-23T14:37:32.179Z,60390.77
2019-02-23T14:40:12.634Z,60376.55
2019-02-23T14:43:00.464Z,60374.52
2019-02-23T14:45:34.606Z,60373.50
2019-02-23T14:48:21.028Z,60368.42
2019-02-23T14:51:10.736Z,60385.69
2019-02-23T14:54:01.519Z,60373.50
2019-02-23T14:56:38.760Z,60379.59
2019-02-23T14:59:13.146Z,60376.55
2019-02-23T15:01:50.281Z,60365.37
2019-02-23T15:04:27.396Z,60372.48
2019-02-23T15:06:58.858Z,60361.30
2019-02-23T15:09:56.044Z,60384.68
2019-02-23T15:12:33.547Z,60375.53
2019-02-23T15:15:31.985Z,60386.71
2019-02-23T15:18:09.466Z,60399.92
2019-02-23T15:20:49.779Z,60382.64
2019-02-23T15:23:21.241Z,60427.36
2019-02-23T15:26:16.447Z,60401.95
2019-02-23T15:29:00.119Z,60407.03
2019-02-23T15:31:48.233Z,60407.03
2019-02-23T15:34:44.077Z,60412.11
2019-02-23T15:37:30.519Z,60393.82
2019-02-23T15:40:10.608Z,60399.92
2019-02-23T15:43:03.130Z,60415.16
2019-02-23T15:45:43.655Z,60409.07
2019-02-23T15:48:21.588Z,60395.86
2019-02-23T15:50:50.040Z,60372.48
2019-02-23T15:53:18.426Z,60395.86
2019-02-23T15:55:47.129Z,60391.79
2019-02-23T15:58:15.809Z,60384.68
2019-02-23T16:00:44.439Z,60401.95
2019-02-23T16:03:12.900Z,60407.03
2019-02-23T16:05:41.308Z,60406.02
2019-02-23T16:08:09.695Z,60406.02
2019-02-23T16:10:38.089Z,60400.93
2019-02-23T16:13:06.520Z,60380.61
2019-02-23T16:15:34.965Z,60428.37
2019-02-23T16:18:03.761Z,60398.90
2019-02-23T16:20:32.394Z,60394.84
2019-02-23T16:23:00.780Z,60413.13
2019-02-23T16:25:38.013Z,60408.05
2019-02-23T16:27:59.736Z,60405.00
2019-02-23T16:30:28.143Z,60399.92
2019-02-23T16:32:56.522Z,60432.44
2019-02-23T16:35:25.182Z,60393.82
2019-02-23T16:37:53.585Z,60408.05
2019-02-23T16:40:22.239Z,60415.16
2019-02-23T16:42:50.968Z,60406.02
2019-02-23T16:45:19.353Z,60400.93
2019-02-23T16:47:47.999Z,60415.16
2019-02-23T16:50:17.665Z,60414.14
2019-02-23T16:52:46.105Z,60427.36
2019-02-23T16:55:14.490Z,60399.92
2019-02-23T16:57:43.252Z,60428.37
2019-02-23T17:00:11.936Z,60390.77
2019-02-23T17:02:40.327Z,60413.13
2019-02-23T17:05:09.265Z,60413.13
2019-02-23T17:07:37.891Z,60418.21
2019-02-23T17:10:07.921Z,60422.27
2019-02-23T17:12:36.355Z,60411.10
2019-02-23T17:15:06.309Z,60430.40
2019-02-23T17:17:34.816Z,60440.57
2019-02-23T17:20:03.526Z,60426.34
2019-02-23T17:22:31.972Z,60448.70
2019-02-23T17:25:00.481Z,60448.70
2019-02-23T17:27:36.303Z,60427.36
2019-02-23T17:29:59.349Z,60427.36
2019-02-23T17:32:28.034Z,60427.36
2019-02-23T17:34:56.437Z,60439.55
2019-02-23T17:37:24.819Z,60439.55
2019-02-23T17:39:53.242Z,60434.47
2019-02-23T17:42:28.047Z,60432.44
2019-02-23T17:44:52.324Z,60402.97
2019-02-23T17:47:20.725Z,60445.65
2019-02-23T17:49:49.668Z,60431.42
2019-02-23T17:52:18.073Z,60431.42
2019-02-23T17:54:46.456Z,60444.63
2019-02-23T17:57:15.017Z,60444.63
2019-02-23T17:59:43.480Z,60440.57
2019-02-23T18:02:11.943Z,60440.57
2019-02-23T18:04:40.653Z,60460.89
2019-02-23T18:07:09.439Z,60449.71
2019-02-23T18:09:37.829Z,60449.71
2019-02-23T18:12:06.609Z,60413.13
2019-02-23T18:14:35.024Z,60413.13
2019-02-23T18:17:03.413Z,60450.73
2019-02-23T18:19:31.834Z,60438.53
2019-02-23T18:22:00.527Z,60442.60
2019-02-23T18:24:29.219Z,60442.60
2019-02-23T18:26:57.622Z,60434.47
2019-02-23T18:29:26.009Z,60456.82
2019-02-23T18:31:54.642Z,60456.82
2019-02-23T18:34:23.057Z,60446.66
2019-02-23T18:36:51.461Z,60458.86
2019-02-23T18:39:20.106Z,60458.86
2019-02-23T18:41:48.504Z,60441.58
2019-02-23T18:44:16.910Z,60445.65
2019-02-23T18:46:45.295Z,60466.99
2019-02-23T18:49:14.030Z,60466.99
2019-02-23T18:51:42.431Z,60448.70
2019-02-23T18:54:11.095Z,60454.79
2019-02-23T18:56:39.492Z,60454.79
2019-02-23T18:59:07.886Z,60443.61
2019-02-23T19:01:36.534Z,60468.00
2019-02-23T19:04:05.024Z,60468.00
2019-02-23T19:06:33.414Z,60461.91
2019-02-23T19:09:02.093Z,60455.81
2019-02-23T19:11:30.498Z,60480.20
2019-02-23T19:13:59.250Z,60437.52
2019-02-23T19:16:27.867Z,60460.89
2019-02-23T19:18:56.257Z,60457.84
2019-02-23T19:21:24.911Z,60440.57
2019-02-23T19:23:53.726Z,60471.05
2019-02-23T19:26:23.453Z,60481.21
2019-02-23T19:28:51.872Z,60450.73
2019-02-23T19:31:20.278Z,60451.75
2019-02-23T19:33:48.761Z,60482.23
2019-02-23T19:36:17.803Z,60480.20
2019-02-23T19:38:46.218Z,60454.79
2019-02-23T19:41:15.315Z,60454.79
2019-02-23T19:43:43.715Z,60485.28
2019-02-23T19:46:12.103Z,60477.15
2019-02-23T19:48:40.500Z,60459.87
2019-02-23T19:51:09.723Z,60459.87
2019-02-23T19:53:39.460Z,60459.87
2019-02-23T19:56:08.148Z,60466.99
2019-02-23T19:58:37.879Z,60469.02
2019-02-23T20:01:06.317Z,60444.63
2019-02-23T20:03:35.128Z,60480.20
2019-02-23T20:06:03.527Z,60480.20
2019-02-23T20:08:31.928Z,60469.02
2019-02-23T20:11:00.308Z,60418.21
2019-02-23T20:13:29.085Z,60454.79
2019-02-23T20:15:57.702Z,60469.02
2019-02-23T20:18:26.120Z,60458.86
2019-02-23T20:20:54.516Z,60466.99
2019-02-23T20:23:22.903Z,60476.13
2019-02-23T20:25:51.303Z,60452.76
2019-02-23T20:28:19.776Z,60463.94
2019-02-23T20:30:48.202Z,60479.18
2019-02-23T20:33:16.758Z,60471.05
2019-02-23T20:35:45.389Z,60459.87
2019-02-23T20:38:13.773Z,60475.12
2019-02-23T20:40:42.258Z,60468.00
2019-02-23T20:43:10.751Z,60473.09
2019-02-23T20:45:39.411Z,60465.97
2019-02-23T20:48:07.816Z,60463.94
2019-02-23T20:50:36.226Z,60482.23
2019-02-23T20:53:04.743Z,60472.07
2019-02-23T20:55:33.181Z,60488.33
2019-02-23T20:58:01.583Z,60478.16
2019-02-23T21:00:31.037Z,60471.05
2019-02-23T21:02:59.444Z,60451.75
2019-02-23T21:05:27.823Z,60475.12
2019-02-23T21:07:56.219Z,60492.39
2019-02-23T21:10:25.154Z,60487.31
2019-02-23T21:12:54.037Z,60466.99
2019-02-23T21:15:22.488Z,60471.05
2019-02-23T21:17:51.135Z,60463.94
2019-02-23T21:20:19.519Z,60464.96
2019-02-23T21:22:48.169Z,60468.00
2019-02-23T21:25:16.631Z,60480.20
2019-02-23T21:27:45.485Z,60475.12
2019-02-23T21:30:14.234Z,60463.94
2019-02-23T21:32:42.916Z,60500.52
2019-02-23T21:35:11.300Z,60463.94
2019-02-23T21:37:39.702Z,60485.28
2019-02-23T21:40:12.198Z,60484.26
2019-02-23T21:42:40.828Z,60473.09
2019-02-23T21:45:10.741Z,60462.92
2019-02-23T21:47:39.097Z,60470.04
2019-02-23T21:50:10.700Z,60470.04
2019-02-23T21:52:39.116Z,60468.00
2019-02-23T21:55:08.055Z,60489.34
2019-02-23T21:57:36.738Z,60484.26
2019-02-23T22:00:07.771Z,60488.33
2019-02-23T22:02:36.181Z,60465.97
2019-02-23T22:05:12.050Z,60475.12
2019-02-23T22:07:36.400Z,60491.38
2019-02-23T22:10:07.793Z,60474.10
2019-02-23T22:12:36.190Z,60485.28
2019-02-23T22:15:06.429Z,60471.05
2019-02-23T22:17:35.148Z,60484.26
2019-02-23T22:20:04.275Z,60498.49
2019-02-23T22:22:32.929Z,60480.20
2019-02-23T22:25:01.331Z,60469.02
2019-02-23T22:27:31.584Z,60473.09
2019-02-23T22:30:00.056Z,60488.33
2019-02-23T22:32:28.674Z,60465.97
2019-02-23T22:34:57.051Z,60486.29
2019-02-23T22:37:25.685Z,60470.04
2019-02-23T22:39:54.301Z,60493.41
2019-02-23T22:42:22.698Z,60494.43
2019-02-23T22:44:51.086Z,60456.82
2019-02-23T22:47:19.473Z,60450.73
2019-02-23T22:49:47.873Z,60493.41
2019-02-23T22:52:16.351Z,60488.33
2019-02-23T22:54:45.021Z,60488.33
2019-02-23T22:57:13.421Z,60490.36
2019-02-23T22:59:42.616Z,60487.31
2019-02-23T23:02:11.282Z,60485.28
2019-02-23T23:04:39.685Z,60479.18
2019-02-23T23:07:08.346Z,60480.20
2019-02-23T23:09:36.752Z,60479.18
2019-02-23T23:12:05.348Z,60466.99
2019-02-23T23:14:33.757Z,60475.12
2019-02-23T23:17:02.141Z,60493.41
2019-02-23T23:19:30.960Z,60510.68
2019-02-23T23:21:59.353Z,60460.89
2019-02-23T23:24:28.231Z,60490.36
2019-02-23T23:26:56.635Z,60510.68
2019-02-23T23:29:25.341Z,60445.65
2019-02-23T23:31:53.731Z,60496.46
2019-02-23T23:34:22.347Z,60466.99
2019-02-23T23:36:50.752Z,60463.94
2019-02-23T23:39:19.137Z,60504.59
2019-02-23T23:41:47.535Z,60473.09
2019-02-23T23:44:15.933Z,60497.47
2019-02-23T23:46:44.311Z,60493.41
2019-02-23T23:49:12.727Z,60487.31
2019-02-23T23:51:41.108Z,60469.02
2019-02-23T23:54:09.498Z,60471.05
2019-02-23T23:56:38.181Z,60469.02
2019-02-23T23:59:06.577Z,60491.38
